createdAt,value
2023-09-08T00:02:14.575Z,4.82
2023-09-08T00:04:41.429Z,4.38
2023-09-08T00:07:08.102Z,5.38
2023-09-08T00:09:34.804Z,4.90
2023-09-08T00:12:02.329Z,4.65
2023-09-08T00:14:28.922Z,4.57
2023-09-08T00:16:55.711Z,4.82
2023-09-08T00:19:24.402Z,5.00
2023-09-08T00:21:51.257Z,4.93
2023-09-08T00:24:19.207Z,5.03
2023-09-08T00:26:46.198Z,4.95
2023-09-08T00:29:13.033Z,5.00
2023-09-08T00:31:39.843Z,4.78
2023-09-08T00:34:07.789Z,5.07
2023-09-08T00:36:34.606Z,5.20
2023-09-08T00:39:01.289Z,4.85
2023-09-08T00:41:27.921Z,5.40
2023-09-08T00:43:54.532Z,4.90
2023-09-08T00:46:21.348Z,4.68
2023-09-08T00:48:48.028Z,4.90
2023-09-08T00:51:15.059Z,5.28
2023-09-08T00:53:42.554Z,4.90
2023-09-08T00:56:11.005Z,5.00
2023-09-08T00:58:38.275Z,4.95
2023-09-08T01:01:06.882Z,4.82
2023-09-08T01:03:33.817Z,4.45
2023-09-08T01:06:01.141Z,5.30
2023-09-08T01:08:28.071Z,4.80
2023-09-08T01:10:55.722Z,5.05
2023-09-08T01:13:22.336Z,5.32
2023-09-08T01:15:50.423Z,5.03
2023-09-08T01:18:17.271Z,4.93
2023-09-08T01:21:11.469Z,4.60
2023-09-08T01:24:16.815Z,4.82
2023-09-08T01:26:43.513Z,5.25
2023-09-08T01:29:15.593Z,5.00
2023-09-08T01:31:42.396Z,4.82
2023-09-08T01:34:09.850Z,4.90
2023-09-08T01:36:36.899Z,4.88
2023-09-08T01:39:04.136Z,4.90
2023-09-08T01:41:32.467Z,4.80
2023-09-08T01:43:59.866Z,4.88
2023-09-08T01:46:26.509Z,4.82
2023-09-08T01:48:53.224Z,4.95
2023-09-08T01:51:19.834Z,5.70
2023-09-08T01:53:46.520Z,5.57
2023-09-08T01:56:13.152Z,5.07
2023-09-08T01:58:39.829Z,5.28
2023-09-08T02:01:06.965Z,4.40
2023-09-08T02:03:34.123Z,4.75
2023-09-08T02:06:00.899Z,4.65
2023-09-08T02:08:27.542Z,5.03
2023-09-08T02:10:54.136Z,4.60
2023-09-08T02:13:20.758Z,4.93
2023-09-08T02:15:47.578Z,4.68
2023-09-08T02:18:15.084Z,4.72
2023-09-08T02:20:41.815Z,4.82
2023-09-08T02:23:08.835Z,4.88
2023-09-08T02:25:35.563Z,4.85
2023-09-08T02:28:02.517Z,4.95
2023-09-08T02:30:29.257Z,4.85
2023-09-08T02:32:56.237Z,5.88
2023-09-08T02:35:25.683Z,5.00
2023-09-08T02:37:52.560Z,4.85
2023-09-08T02:40:20.162Z,5.18
2023-09-08T02:42:46.924Z,4.97
2023-09-08T02:45:13.585Z,4.70
2023-09-08T02:47:40.243Z,4.85
2023-09-08T02:50:07.895Z,5.40
2023-09-08T02:52:34.590Z,5.03
2023-09-08T02:55:01.244Z,5.00
2023-09-08T02:57:28.288Z,5.53
2023-09-08T02:59:57.472Z,5.28
2023-09-08T03:02:26.732Z,5.57
2023-09-08T03:04:53.521Z,5.40
2023-09-08T03:07:20.153Z,5.45
2023-09-08T03:09:46.786Z,5.63
2023-09-08T03:12:13.450Z,5.20
2023-09-08T03:14:40.133Z,5.22
2023-09-08T03:17:06.801Z,5.28
2023-09-08T03:19:33.521Z,5.35
2023-09-08T03:22:00.173Z,5.60
2023-09-08T03:24:26.826Z,5.00
2023-09-08T03:26:53.562Z,6.10
2023-09-08T03:29:20.232Z,6.00
2023-09-08T03:31:46.877Z,6.03
2023-09-08T03:34:14.482Z,5.25
2023-09-08T03:36:41.325Z,6.03
2023-09-08T03:39:13.030Z,5.43
2023-09-08T03:41:39.831Z,5.70
2023-09-08T03:44:06.556Z,5.63
2023-09-08T03:46:33.290Z,6.03
2023-09-08T03:49:01.868Z,6.60
2023-09-08T03:51:29.166Z,5.50
2023-09-08T03:53:56.031Z,5.93
2023-09-08T03:56:23.822Z,6.28
2023-09-08T03:58:50.735Z,6.25
2023-09-08T04:01:17.443Z,5.88
2023-09-08T04:03:44.973Z,6.05
2023-09-08T04:06:12.281Z,6.13
2023-09-08T04:08:38.884Z,5.45
2023-09-08T04:11:05.533Z,6.40
2023-09-08T04:13:32.292Z,6.10
2023-09-08T04:15:59.131Z,6.47
2023-09-08T04:18:26.025Z,6.03
2023-09-08T04:20:53.988Z,6.63
2023-09-08T04:23:20.801Z,6.53
2023-09-08T04:25:47.382Z,6.32
2023-09-08T04:28:13.964Z,6.47
2023-09-08T04:30:40.763Z,6.70
2023-09-08T04:33:07.468Z,6.72
2023-09-08T04:35:34.195Z,7.03
2023-09-08T04:38:03.485Z,6.88
2023-09-08T04:40:31.341Z,6.78
2023-09-08T04:42:57.996Z,6.63
2023-09-08T04:45:24.744Z,6.68
2023-09-08T04:47:51.603Z,6.53
2023-09-08T04:50:18.489Z,6.60
2023-09-08T04:52:46.209Z,6.85
2023-09-08T04:55:12.968Z,6.13
2023-09-08T04:57:39.736Z,7.25
2023-09-08T05:00:07.688Z,6.72
2023-09-08T05:02:34.430Z,6.78
2023-09-08T05:05:02.561Z,7.65
2023-09-08T05:07:29.282Z,7.20
2023-09-08T05:09:57.738Z,7.30
2023-09-08T05:12:24.662Z,7.13
2023-09-08T05:14:56.794Z,7.70
2023-09-08T05:17:24.962Z,7.63
2023-09-08T05:19:51.598Z,7.15
2023-09-08T05:22:18.747Z,7.18
2023-09-08T05:24:45.390Z,6.65
2023-09-08T05:27:12.084Z,7.20
2023-09-08T05:29:38.662Z,7.03
2023-09-08T05:32:05.446Z,7.57
2023-09-08T05:34:32.139Z,7.40
2023-09-08T05:37:00.146Z,7.63
2023-09-08T05:39:26.844Z,7.35
2023-09-08T05:41:53.442Z,7.30
2023-09-08T05:44:20.754Z,7.30
2023-09-08T05:46:47.539Z,7.82
2023-09-08T05:49:15.609Z,7.03
2023-09-08T05:51:43.046Z,7.72
2023-09-08T05:54:09.687Z,7.55
2023-09-08T05:56:38.949Z,7.38
2023-09-08T05:59:05.635Z,8.40
2023-09-08T06:01:32.456Z,6.90
2023-09-08T06:03:59.313Z,7.38
2023-09-08T06:06:29.752Z,7.63
2023-09-08T06:08:56.457Z,7.30
2023-09-08T06:11:23.215Z,7.47
2023-09-08T06:13:49.780Z,7.72
2023-09-08T06:16:16.573Z,7.78
2023-09-08T06:18:45.128Z,7.88
2023-09-08T06:21:11.861Z,7.60
2023-09-08T06:23:38.541Z,7.43
2023-09-08T06:26:05.649Z,7.15
2023-09-08T06:28:32.278Z,7.45
2023-09-08T06:30:58.883Z,7.47
2023-09-08T06:33:26.001Z,7.47
2023-09-08T06:35:54.776Z,7.47
2023-09-08T06:38:21.401Z,7.82
2023-09-08T06:40:49.012Z,8.05
2023-09-08T06:43:15.661Z,7.03
2023-09-08T06:45:42.275Z,6.68
2023-09-08T06:48:08.952Z,7.38
2023-09-08T06:50:36.339Z,7.45
2023-09-08T06:53:03.130Z,7.18
2023-09-08T06:55:29.750Z,7.22
2023-09-08T06:57:56.458Z,7.25
2023-09-08T07:00:23.251Z,7.68
2023-09-08T07:02:50.713Z,7.35
2023-09-08T07:05:17.952Z,7.22
2023-09-08T07:07:44.872Z,7.88
2023-09-08T07:10:12.017Z,6.90
2023-09-08T07:12:38.707Z,7.47
2023-09-08T07:15:05.846Z,6.90
2023-09-08T07:17:32.613Z,6.75
2023-09-08T07:19:59.287Z,6.85
2023-09-08T07:22:26.010Z,7.43
2023-09-08T07:24:52.648Z,6.75
2023-09-08T07:27:20.675Z,7.32
2023-09-08T07:29:48.973Z,7.80
2023-09-08T07:32:15.624Z,7.93
2023-09-08T07:34:42.462Z,6.88
2023-09-08T07:37:09.280Z,8.18
2023-09-08T07:39:36.519Z,8.98
2023-09-08T07:42:03.954Z,8.10
2023-09-08T07:44:30.796Z,8.05
2023-09-08T07:46:57.661Z,8.32
2023-09-08T07:49:25.155Z,8.32
2023-09-08T07:51:51.932Z,7.03
2023-09-08T07:54:20.467Z,7.22
2023-09-08T07:56:48.108Z,7.38
2023-09-08T07:59:14.901Z,6.47
2023-09-08T08:01:41.713Z,6.70
2023-09-08T08:04:09.268Z,6.47
2023-09-08T08:06:36.157Z,7.03
2023-09-08T08:09:03.398Z,6.30
2023-09-08T08:11:30.302Z,6.78
2023-09-08T08:13:57.877Z,6.35
2023-09-08T08:16:25.415Z,7.03
2023-09-08T08:18:52.210Z,6.55
2023-09-08T08:21:18.965Z,6.20
2023-09-08T08:23:45.708Z,6.93
2023-09-08T08:26:12.465Z,5.93
2023-09-08T08:28:39.036Z,6.60
2023-09-08T08:31:05.994Z,6.22
2023-09-08T08:33:33.080Z,6.47
2023-09-08T08:36:00.047Z,5.78
2023-09-08T08:38:29.009Z,6.32
2023-09-08T08:40:55.671Z,5.95
2023-09-08T08:43:24.563Z,6.07
2023-09-08T08:45:51.844Z,6.10
2023-09-08T08:48:21.772Z,5.85
2023-09-08T08:50:50.101Z,6.20
2023-09-08T08:53:18.351Z,6.55
2023-09-08T08:55:47.265Z,5.93
2023-09-08T08:58:15.753Z,5.40
2023-09-08T09:00:42.862Z,6.50
2023-09-08T09:03:15.216Z,5.75
2023-09-08T09:05:46.518Z,6.00
2023-09-08T09:08:16.962Z,5.88
2023-09-08T09:10:43.814Z,5.75
2023-09-08T09:13:10.436Z,6.03
2023-09-08T09:15:37.168Z,6.20
2023-09-08T09:18:05.845Z,5.85
2023-09-08T09:20:32.831Z,5.70
2023-09-08T09:22:59.811Z,5.50
2023-09-08T09:25:29.219Z,5.43
2023-09-08T09:27:58.560Z,5.93
2023-09-08T09:30:28.780Z,6.35
2023-09-08T09:33:02.564Z,5.80
2023-09-08T09:35:41.233Z,5.85
2023-09-08T09:38:09.371Z,5.32
2023-09-08T09:40:36.092Z,5.38
2023-09-08T09:43:04.849Z,5.88
2023-09-08T09:45:32.438Z,5.40
2023-09-08T09:47:59.712Z,5.25
2023-09-08T09:50:31.061Z,6.15
2023-09-08T09:53:02.569Z,5.72
2023-09-08T09:55:29.482Z,5.78
2023-09-08T09:58:01.374Z,5.78
2023-09-08T10:00:29.075Z,5.38
2023-09-08T10:02:57.034Z,5.07
2023-09-08T10:05:26.840Z,6.05
2023-09-08T10:07:53.739Z,5.28
2023-09-08T10:10:22.078Z,5.28
2023-09-08T10:12:56.603Z,6.15
2023-09-08T10:15:25.867Z,5.18
2023-09-08T10:17:57.986Z,5.25
2023-09-08T10:20:25.910Z,5.38
2023-09-08T10:23:19.418Z,5.35
2023-09-08T10:25:54.969Z,5.75
2023-09-08T10:28:24.304Z,5.38
2023-09-08T10:30:52.675Z,5.20
2023-09-08T10:33:20.405Z,6.28
2023-09-08T10:35:47.558Z,5.50
2023-09-08T10:38:34.588Z,5.45
2023-09-08T10:41:16.690Z,5.38
2023-09-08T10:44:02.274Z,5.72
2023-09-08T10:46:29.857Z,5.07
2023-09-08T10:49:03.439Z,5.13
2023-09-08T10:51:30.601Z,4.90
2023-09-08T10:53:58.240Z,5.28
2023-09-08T10:56:49.733Z,4.93
2023-09-08T10:59:16.887Z,4.72
2023-09-08T11:01:45.836Z,4.35
2023-09-08T11:04:14.446Z,4.88
2023-09-08T11:06:41.216Z,4.95
2023-09-08T11:09:08.910Z,4.85
2023-09-08T11:11:37.776Z,4.82
2023-09-08T11:14:04.902Z,4.78
2023-09-08T11:16:34.623Z,4.93
2023-09-08T11:19:05.480Z,4.88
2023-09-08T11:21:36.132Z,4.88
2023-09-08T11:24:05.403Z,4.97
2023-09-08T11:26:35.470Z,5.15
2023-09-08T11:29:02.325Z,4.60
2023-09-08T11:31:28.946Z,5.05
2023-09-08T11:33:56.623Z,4.80
2023-09-08T11:36:23.401Z,5.10
2023-09-08T11:38:50.330Z,4.60
2023-09-08T11:41:17.962Z,4.43
2023-09-08T11:43:44.731Z,4.55
2023-09-08T11:46:12.432Z,3.90
2023-09-08T11:48:39.448Z,4.68
2023-09-08T11:51:08.745Z,4.57
2023-09-08T11:53:36.480Z,5.03
2023-09-08T11:56:03.456Z,4.78
2023-09-08T11:58:30.889Z,4.45
2023-09-08T12:00:58.511Z,4.90
2023-09-08T12:03:25.130Z,4.13
2023-09-08T12:05:53.389Z,4.22
2023-09-08T12:08:20.379Z,4.53
2023-09-08T12:10:47.132Z,4.90
2023-09-08T12:13:15.317Z,4.75
2023-09-08T12:15:44.472Z,4.70
2023-09-08T12:18:13.867Z,4.38
2023-09-08T12:20:41.450Z,4.40
2023-09-08T12:23:21.181Z,4.20
2023-09-08T12:25:52.790Z,4.30
2023-09-08T12:28:22.057Z,4.25
2023-09-08T12:30:50.864Z,4.00
2023-09-08T12:33:21.805Z,4.40
2023-09-08T12:35:54.485Z,4.45
2023-09-08T12:38:21.395Z,4.35
2023-09-08T12:40:48.092Z,4.43
2023-09-08T12:43:27.400Z,4.32
2023-09-08T12:45:55.805Z,4.15
2023-09-08T12:48:22.979Z,4.28
2023-09-08T12:50:50.148Z,4.43
2023-09-08T12:53:21.057Z,4.70
2023-09-08T12:55:48.262Z,4.38
2023-09-08T12:58:14.936Z,4.40
2023-09-08T13:00:41.531Z,4.22
2023-09-08T13:03:08.210Z,4.63
2023-09-08T13:05:35.121Z,4.47
2023-09-08T13:08:02.137Z,5.25
2023-09-08T13:10:28.830Z,4.60
2023-09-08T13:12:55.898Z,4.60
2023-09-08T13:15:24.007Z,4.60
2023-09-08T13:17:50.616Z,4.90
2023-09-08T13:20:17.372Z,4.60
2023-09-08T13:22:44.792Z,4.35
2023-09-08T13:25:12.530Z,4.72
2023-09-08T13:27:41.823Z,4.80
2023-09-08T13:30:12.904Z,4.30
2023-09-08T13:32:40.244Z,4.38
2023-09-08T13:35:07.822Z,5.07
2023-09-08T13:37:39.536Z,4.53
2023-09-08T13:40:07.662Z,4.00
2023-09-08T13:42:35.351Z,4.15
2023-09-08T13:45:02.455Z,4.13
2023-09-08T13:47:29.817Z,3.97
2023-09-08T13:49:58.755Z,3.53
2023-09-08T13:52:27.566Z,3.88
2023-09-08T13:55:12.822Z,3.85
2023-09-08T13:57:42.321Z,3.70
2023-09-08T14:00:16.467Z,3.72
2023-09-08T14:02:49.839Z,3.53
2023-09-08T14:05:19.772Z,3.45
2023-09-08T14:07:55.857Z,4.25
2023-09-08T14:12:54.068Z,3.38
2023-09-08T14:15:20.836Z,3.50
2023-09-08T14:17:47.470Z,3.13
2023-09-08T14:20:14.239Z,3.67
2023-09-08T14:22:41.067Z,3.75
2023-09-08T14:25:08.094Z,4.28
2023-09-08T14:27:36.052Z,3.80
2023-09-08T14:30:03.897Z,3.90
2023-09-08T14:32:31.010Z,5.07
2023-09-08T14:34:57.640Z,4.15
2023-09-08T14:37:24.477Z,4.00
2023-09-08T14:39:51.114Z,4.35
2023-09-08T14:42:17.785Z,4.40
2023-09-08T14:44:45.213Z,4.30
2023-09-08T14:47:11.820Z,4.80
2023-09-08T14:49:38.394Z,3.83
2023-09-08T14:52:05.157Z,3.95
2023-09-08T14:54:31.870Z,3.50
2023-09-08T14:56:58.486Z,4.20
2023-09-08T14:59:25.120Z,3.95
2023-09-08T15:01:54.894Z,4.20
2023-09-08T15:04:21.657Z,3.83
2023-09-08T15:06:48.301Z,3.95
2023-09-08T15:09:15.235Z,3.75
2023-09-08T15:11:41.923Z,4.03
2023-09-08T15:14:08.591Z,4.22
2023-09-08T15:16:35.216Z,3.90
2023-09-08T15:19:01.856Z,4.15
2023-09-08T15:21:28.585Z,4.03
2023-09-08T15:23:55.506Z,4.40
2023-09-08T15:26:22.690Z,4.13
2023-09-08T15:28:49.322Z,4.68
2023-09-08T15:31:19.328Z,4.22
2023-09-08T15:33:46.680Z,4.28
2023-09-08T15:36:14.015Z,4.72
2023-09-08T15:38:41.525Z,4.53
2023-09-08T15:41:08.251Z,4.10
2023-09-08T15:43:38.667Z,4.50
2023-09-08T15:46:09.369Z,4.25
2023-09-08T15:48:36.997Z,4.30
2023-09-08T15:51:04.385Z,4.75
2023-09-08T15:53:31.901Z,4.60
2023-09-08T15:55:58.780Z,4.22
2023-09-08T15:58:25.387Z,5.70
2023-09-08T16:00:52.141Z,4.75
2023-09-08T16:03:19.002Z,4.15
2023-09-08T16:05:45.782Z,4.90
2023-09-08T16:08:12.523Z,4.43
2023-09-08T16:10:39.139Z,4.00
2023-09-08T16:13:05.820Z,4.38
2023-09-08T16:15:32.407Z,4.05
2023-09-08T16:18:00.952Z,4.20
2023-09-08T16:20:27.737Z,4.63
2023-09-08T16:22:54.408Z,4.30
2023-09-08T16:25:21.029Z,4.07
2023-09-08T16:27:47.695Z,4.03
2023-09-08T16:30:14.461Z,3.80
2023-09-08T16:32:41.435Z,4.30
2023-09-08T16:35:08.695Z,4.13
2023-09-08T16:37:35.381Z,4.38
2023-09-08T16:40:02.034Z,4.10
2023-09-08T16:42:28.672Z,4.20
2023-09-08T16:44:55.350Z,4.38
2023-09-08T16:47:24.102Z,3.95
2023-09-08T16:49:51.127Z,3.60
2023-09-08T16:52:18.076Z,4.30
2023-09-08T16:54:47.167Z,3.95
2023-09-08T16:57:14.893Z,3.80
2023-09-08T16:59:41.669Z,3.97
2023-09-08T17:02:08.318Z,4.03
2023-09-08T17:04:36.904Z,4.40
2023-09-08T17:07:03.871Z,3.80
2023-09-08T17:09:30.984Z,3.92
2023-09-08T17:11:57.719Z,4.20
2023-09-08T17:14:25.047Z,3.53
2023-09-08T17:16:51.723Z,3.75
2023-09-08T17:19:18.474Z,4.05
2023-09-08T17:21:45.991Z,3.72
2023-09-08T17:24:13.628Z,3.90
2023-09-08T17:26:40.244Z,3.83
2023-09-08T17:29:08.741Z,3.83
2023-09-08T17:31:35.558Z,3.72
2023-09-08T17:34:02.449Z,4.35
2023-09-08T17:36:29.115Z,3.88
2023-09-08T17:38:55.716Z,3.60
2023-09-08T17:41:22.623Z,4.03
2023-09-08T17:43:49.190Z,4.15
2023-09-08T17:46:16.002Z,4.05
2023-09-08T17:48:42.771Z,4.18
2023-09-08T17:51:09.420Z,3.90
2023-09-08T17:53:37.429Z,3.95
2023-09-08T17:56:04.554Z,4.47
2023-09-08T17:58:31.120Z,5.70
2023-09-08T18:00:57.820Z,4.95
2023-09-08T18:03:24.652Z,4.78
2023-09-08T18:05:51.407Z,4.85
2023-09-08T18:08:18.016Z,4.75
2023-09-08T18:10:44.779Z,4.15
2023-09-08T18:13:11.393Z,4.65
2023-09-08T18:15:38.069Z,4.40
2023-09-08T18:18:05.022Z,4.20
2023-09-08T18:20:34.922Z,4.22
2023-09-08T18:23:01.543Z,4.57
2023-09-08T18:25:28.224Z,4.68
2023-09-08T18:27:54.825Z,4.30
2023-09-08T18:30:21.426Z,4.88
2023-09-08T18:32:48.129Z,4.45
2023-09-08T18:35:14.883Z,4.30
2023-09-08T18:37:42.438Z,4.07
2023-09-08T18:40:11.321Z,4.50
2023-09-08T18:42:39.564Z,4.78
2023-09-08T18:45:07.363Z,4.70
2023-09-08T18:47:34.005Z,5.10
2023-09-08T18:50:00.653Z,4.72
2023-09-08T18:52:27.374Z,9.20
2023-09-08T18:54:54.043Z,8.65
2023-09-08T18:57:20.620Z,9.60
2023-09-08T18:59:49.584Z,9.93
2023-09-08T19:02:16.218Z,7.20
2023-09-08T19:04:42.985Z,6.45
2023-09-08T19:07:09.639Z,5.60
2023-09-08T19:09:36.218Z,5.03
2023-09-08T19:12:02.958Z,5.63
2023-09-08T19:14:29.978Z,5.65
2023-09-08T19:16:58.559Z,5.40
2023-09-08T19:19:25.548Z,5.10
2023-09-08T19:21:52.178Z,4.88
2023-09-08T19:24:19.835Z,4.97
2023-09-08T19:26:46.729Z,5.25
2023-09-08T19:29:13.307Z,4.57
2023-09-08T19:31:40.034Z,4.90
2023-09-08T19:34:08.076Z,5.32
2023-09-08T19:36:34.879Z,4.53
2023-09-08T19:39:01.537Z,5.25
2023-09-08T19:41:28.255Z,4.88
2023-09-08T19:43:54.864Z,4.95
2023-09-08T19:46:21.593Z,5.00
2023-09-08T19:48:48.332Z,5.05
2023-09-08T19:51:15.998Z,5.88
2023-09-08T19:53:42.742Z,5.53
2023-09-08T19:56:09.444Z,5.35
2023-09-08T19:58:36.138Z,5.32
2023-09-08T20:01:17.502Z,5.53
2023-09-08T20:03:45.407Z,4.90
2023-09-08T20:06:17.892Z,5.40
2023-09-08T20:08:44.573Z,5.25
2023-09-08T20:11:11.189Z,5.65
2023-09-08T20:13:38.060Z,5.05
2023-09-08T20:16:07.793Z,4.68
2023-09-08T20:18:35.586Z,5.32
2023-09-08T20:21:03.965Z,4.90
2023-09-08T20:23:32.481Z,5.05
2023-09-08T20:25:59.644Z,5.22
2023-09-08T20:28:26.410Z,5.30
2023-09-08T20:31:09.453Z,5.03
2023-09-08T20:33:40.920Z,4.93
2023-09-08T20:36:07.600Z,5.13
2023-09-08T20:38:34.444Z,4.88
2023-09-08T20:41:01.287Z,4.90
2023-09-08T20:43:27.980Z,4.97
2023-09-08T20:45:55.182Z,5.22
2023-09-08T20:48:22.933Z,5.38
2023-09-08T20:50:58.346Z,5.28
2023-09-08T20:53:25.030Z,5.43
2023-09-08T20:55:51.587Z,5.47
2023-09-08T20:58:18.164Z,5.53
2023-09-08T21:00:44.772Z,5.32
2023-09-08T21:03:11.422Z,5.15
2023-09-08T21:05:38.014Z,5.22
2023-09-08T21:08:04.933Z,4.82
2023-09-08T21:10:33.327Z,5.68
2023-09-08T21:12:59.905Z,5.43
2023-09-08T21:15:26.549Z,5.40
2023-09-08T21:17:53.387Z,5.70
2023-09-08T21:20:20.416Z,5.25
2023-09-08T21:22:47.052Z,5.53
2023-09-08T21:25:13.716Z,5.72
2023-09-08T21:27:40.396Z,6.13
2023-09-08T21:30:07.661Z,5.72
2023-09-08T21:32:34.600Z,5.40
2023-09-08T21:35:03.868Z,5.22
2023-09-08T21:37:30.490Z,5.45
2023-09-08T21:39:57.079Z,6.30
2023-09-08T21:42:23.736Z,5.75
2023-09-08T21:44:50.306Z,5.20
2023-09-08T21:47:16.932Z,5.40
2023-09-08T21:49:43.649Z,5.65
2023-09-08T21:52:10.715Z,5.88
2023-09-08T21:54:38.190Z,5.10
2023-09-08T21:57:05.088Z,5.18
2023-09-08T21:59:31.859Z,5.30
2023-09-08T22:01:58.592Z,5.60
2023-09-08T22:04:25.682Z,5.60
2023-09-08T22:06:53.810Z,5.40
2023-09-08T22:09:20.747Z,5.35
2023-09-08T22:11:49.812Z,5.05
2023-09-08T22:14:16.420Z,5.30
2023-09-08T22:16:43.223Z,5.63
2023-09-08T22:19:11.201Z,5.38
2023-09-08T22:21:37.953Z,5.50
2023-09-08T22:24:04.730Z,5.50
2023-09-08T22:26:31.375Z,5.20
2023-09-08T22:28:57.965Z,6.05
2023-09-08T22:31:24.683Z,5.25
2023-09-08T22:33:51.416Z,5.25
2023-09-08T22:36:21.125Z,5.63
2023-09-08T22:38:48.539Z,5.45
2023-09-08T22:41:15.228Z,5.25
2023-09-08T22:43:41.881Z,5.45
2023-09-08T22:46:08.781Z,5.63
2023-09-08T22:48:36.274Z,5.75
2023-09-08T22:51:04.921Z,5.35
2023-09-08T22:53:31.763Z,5.35
2023-09-08T22:55:58.533Z,5.65
2023-09-08T22:58:26.327Z,5.50
2023-09-08T23:00:53.036Z,5.28
2023-09-08T23:03:19.828Z,5.40
2023-09-08T23:05:46.523Z,6.20
2023-09-08T23:08:13.178Z,5.78
2023-09-08T23:10:39.832Z,5.80
2023-09-08T23:13:06.486Z,5.50
2023-09-08T23:15:34.402Z,5.88
2023-09-08T23:18:01.090Z,6.25
2023-09-08T23:20:27.831Z,6.22
2023-09-08T23:22:54.479Z,5.95
2023-09-08T23:25:21.089Z,5.63
2023-09-08T23:27:47.704Z,5.88
2023-09-08T23:30:14.482Z,6.20
2023-09-08T23:32:42.711Z,5.47
2023-09-08T23:35:11.910Z,5.50
2023-09-08T23:37:38.829Z,5.35
2023-09-08T23:40:08.595Z,5.65
2023-09-08T23:42:35.226Z,5.63
2023-09-08T23:45:03.820Z,5.65
2023-09-08T23:47:30.463Z,6.05
2023-09-08T23:49:57.295Z,5.82
2023-09-08T23:52:23.913Z,5.18
2023-09-08T23:54:50.547Z,6.22
2023-09-08T23:57:17.482Z,6.05
2023-09-08T23:59:44.910Z,6.05
